Time;durP1;ratioP1;P1;durP2;ratioP2;P2;SDS_P1;SDS_P2;PMS_P1;PMS_P2;Temp;Humidity;BMP_temperature;BMP_pressure;BME280_temperature;BME280_humidity;BME280_pressure;Samples;Min_cycle;Max_cycle;Signal;HPM_P1;HPM_P2
2021/06/03 00:02:10;;;;;;;6.32;3.90;;;;;;;19.66;55.47;101006.28;5027613;28;20044;-48
2021/06/03 00:04:36;;;;;;;6.32;4.22;;;;;;;19.50;56.11;101010.44;5044125;28;20213;-48
2021/06/03 00:07:02;;;;;;;6.18;3.83;;;;;;;19.42;55.56;101001.88;5052536;28;20384;-48
2021/06/03 00:09:28;;;;;;;7.50;3.90;;;;;;;19.36;56.28;101016.22;5068631;28;20044;-48
2021/06/03 00:11:54;;;;;;;6.45;3.80;;;;;;;19.35;56.72;101006.53;5044838;28;20051;-48
2021/06/03 00:14:20;;;;;;;6.28;4.28;;;;;;;19.07;57.61;101004.88;5048435;27;20059;-49
2021/06/03 00:16:46;;;;;;;4.65;3.85;;;;;;;19.17;56.71;101011.56;5052335;27;20039;-49
2021/06/03 00:19:12;;;;;;;6.50;3.53;;;;;;;19.18;56.99;101001.84;5045706;27;21549;-50
2021/06/03 00:21:40;;;;;;;6.43;3.83;;;;;;;19.00;57.59;101004.22;5049605;28;20119;-49
2021/06/03 00:24:06;;;;;;;4.47;3.50;;;;;;;18.88;57.37;101004.63;5048168;28;20129;-50
2021/06/03 00:26:33;;;;;;;5.45;4.05;;;;;;;18.95;57.10;101006.16;5043666;28;20462;-49
2021/06/03 00:28:59;;;;;;;6.97;4.28;;;;;;;19.18;55.98;101018.59;5048788;28;20036;-48
2021/06/03 00:31:24;;;;;;;5.50;3.60;;;;;;;19.10;55.74;101012.72;5047219;28;20047;-48
2021/06/03 00:33:50;;;;;;;6.65;3.72;;;;;;;19.49;53.11;101016.66;5012551;28;20063;-50
2021/06/03 00:36:16;;;;;;;5.47;3.63;;;;;;;19.78;52.65;101017.34;5051318;28;20049;-49
2021/06/03 00:38:42;;;;;;;5.50;3.75;;;;;;;19.33;55.62;101017.19;5038423;28;20093;-48
2021/06/03 00:41:08;;;;;;;6.05;3.97;;;;;;;19.28;56.58;101018.28;5054194;28;20118;-50
2021/06/03 00:43:34;;;;;;;5.63;4.07;;;;;;;19.26;55.13;101021.00;5069422;28;20047;-50
2021/06/03 00:46:01;;;;;;;5.22;3.42;;;;;;;19.30;54.74;101014.66;5067896;28;20038;-49
2021/06/03 00:48:27;;;;;;;7.15;3.80;;;;;;;19.04;56.75;101016.44;5068192;28;20032;-48
2021/06/03 00:50:57;;;;;;;6.57;3.85;;;;;;;18.92;56.78;101016.00;5051852;28;20039;-49
2021/06/03 00:53:24;;;;;;;4.50;3.42;;;;;;;18.90;57.53;101016.06;5047718;28;20043;-47
2021/06/03 00:55:53;;;;;;;5.65;3.60;;;;;;;18.75;57.20;101014.75;5047912;28;20044;-48
2021/06/03 00:58:22;;;;;;;6.07;4.15;;;;;;;18.72;56.86;101018.38;5050852;28;20036;-49
2021/06/03 01:00:50;;;;;;;5.72;3.67;;;;;;;18.67;57.73;101014.13;5048861;28;20250;-48
2021/06/03 01:03:18;;;;;;;5.43;3.47;;;;;;;18.70;57.73;101012.22;5047904;28;20040;-48
2021/06/03 01:05:54;;;;;;;6.47;3.87;;;;;;;18.54;58.18;101008.38;5031577;28;20471;-47
2021/06/03 01:08:50;;;;;;;6.22;3.63;;;;;;;18.34;59.52;101003.72;5035570;28;20036;-47
2021/06/03 01:11:33;;;;;;;4.43;3.28;;;;;;;18.50;58.53;101010.25;5045111;28;20051;-48
2021/06/03 01:14:09;;;;;;;4.60;3.40;;;;;;;18.36;59.24;101012.50;5045212;28;20044;-51
2021/06/03 01:16:36;;;;;;;4.63;3.50;;;;;;;18.29;59.93;101017.09;5042923;28;20163;-49
2021/06/03 01:19:09;;;;;;;4.18;3.33;;;;;;;18.16;59.65;101005.16;5057301;28;20047;-48
2021/06/03 01:22:00;;;;;;;8.13;3.75;;;;;;;18.09;59.91;101014.22;5056408;28;20584;-48
2021/06/03 01:24:30;;;;;;;7.05;4.25;;;;;;;18.13;60.47;101005.25;4989433;28;20052;-48
2021/06/03 01:27:01;;;;;;;5.00;4.00;;;;;;;18.17;58.85;101006.91;5074558;28;20575;-47
2021/06/03 01:29:44;;;;;;;5.32;3.55;;;;;;;18.08;59.43;101012.47;5057524;28;20049;-49
2021/06/03 01:32:10;;;;;;;5.40;3.35;;;;;;;18.10;58.65;101019.44;5039285;28;20044;-48
2021/06/03 01:34:37;;;;;;;6.15;3.60;;;;;;;18.04;59.04;101024.91;5050858;28;20041;-48
2021/06/03 01:37:05;;;;;;;5.18;3.70;;;;;;;18.16;59.24;101011.31;5039039;28;20040;-49
2021/06/03 01:39:33;;;;;;;5.00;3.72;;;;;;;18.47;57.12;101014.78;5059451;28;20031;-46
2021/06/03 01:42:00;;;;;;;5.22;3.75;;;;;;;18.72;55.80;101009.56;5055875;28;20538;-50
2021/06/03 01:44:26;;;;;;;5.30;3.33;;;;;;;18.49;56.79;101008.50;5072191;28;20432;-48
2021/06/03 01:46:54;;;;;;;5.47;3.70;;;;;;;18.96;55.49;101013.19;5049672;28;20036;-49
2021/06/03 01:49:23;;;;;;;4.95;3.83;;;;;;;18.98;55.32;101007.81;5058012;28;20051;-49
2021/06/03 01:51:49;;;;;;;5.05;4.05;;;;;;;18.93;55.75;101013.28;5069999;28;20059;-47
2021/06/03 01:54:18;;;;;;;4.63;3.65;;;;;;;18.94;54.81;101014.16;5041118;28;20036;-48
2021/06/03 01:56:45;;;;;;;5.63;3.70;;;;;;;18.88;55.07;101018.75;5054566;28;20131;-47
2021/06/03 01:59:12;;;;;;;4.50;3.40;;;;;;;18.66;57.84;101017.69;5049636;28;20283;-50
2021/06/03 02:01:39;;;;;;;6.57;3.60;;;;;;;18.23;58.60;101011.13;5020018;28;20045;-48
2021/06/03 02:04:05;;;;;;;7.07;3.70;;;;;;;18.04;58.37;101028.44;5027659;28;20040;-50
2021/06/03 02:06:31;;;;;;;5.43;4.03;;;;;;;18.13;59.76;101026.44;5053903;28;20040;-48
2021/06/03 02:09:00;;;;;;;8.32;4.22;;;;;;;18.09;58.20;101024.78;5051280;28;20487;-47
2021/06/03 02:11:26;;;;;;;5.13;4.03;;;;;;;18.10;59.29;101023.88;5054602;28;20105;-47
2021/06/03 02:14:00;;;;;;;5.32;3.80;;;;;;;18.03;59.69;101031.13;5042664;28;20507;-47
2021/06/03 02:16:48;;;;;;;4.50;3.70;;;;;;;17.92;59.57;101023.50;5038054;28;20182;-49
2021/06/03 02:19:24;;;;;;;5.13;3.70;;;;;;;17.80;60.03;101026.47;5040393;28;20047;-49
2021/06/03 02:21:55;;;;;;;4.95;3.78;;;;;;;17.62;60.55;101028.72;5072151;28;20035;-47
2021/06/03 02:24:22;;;;;;;;;;;;;;;17.63;61.62;101038.41;5054542;28;20032;-47
2021/06/03 02:26:50;;;;;;;4.80;3.60;;;;;;;17.62;61.73;101033.16;5054089;28;19946;-49
2021/06/03 02:29:17;;;;;;;5.53;3.90;;;;;;;17.45;60.33;101031.00;5053393;28;20297;-47
2021/06/03 02:31:58;;;;;;;5.68;3.60;;;;;;;17.43;61.59;101031.03;5042984;28;20339;-47
2021/06/03 02:34:29;;;;;;;5.25;3.95;;;;;;;17.42;61.55;101039.00;5045063;28;20068;-47
2021/06/03 02:36:56;;;;;;;5.03;3.92;;;;;;;17.72;59.48;101041.69;5046724;28;20043;-48
2021/06/03 02:39:22;;;;;;;5.85;3.70;;;;;;;17.85;59.39;101040.44;5016376;28;20022;-48
2021/06/03 02:41:49;;;;;;;7.00;3.80;;;;;;;17.91;60.34;101047.34;5053130;28;20239;-47
2021/06/03 02:44:16;;;;;;;4.90;3.80;;;;;;;17.80;61.33;101045.84;5055312;28;20391;-47
2021/06/03 02:46:42;;;;;;;5.75;3.50;;;;;;;17.92;59.91;101049.09;5055840;28;20398;-46
2021/06/03 02:49:09;;;;;;;5.13;3.50;;;;;;;17.72;61.54;101047.00;5074578;28;20047;-49
2021/06/03 02:51:36;;;;;;;5.97;3.53;;;;;;;17.64;60.82;101049.84;5038960;28;20027;-48
2021/06/03 02:54:03;;;;;;;6.25;3.80;;;;;;;17.83;59.23;101055.47;5030769;28;20020;-47
2021/06/03 02:56:35;;;;;;;5.95;3.60;;;;;;;17.90;60.00;101054.38;5066625;28;20504;-47
2021/06/03 02:59:01;;;;;;;4.85;3.58;;;;;;;17.50;61.30;101052.88;5053757;28;20461;-47
2021/06/03 03:01:27;;;;;;;5.28;3.53;;;;;;;17.37;62.48;101052.34;5049219;28;20239;-48
2021/06/03 03:03:53;;;;;;;6.80;3.53;;;;;;;17.39;62.43;101062.88;5046300;28;20394;-48
2021/06/03 03:06:20;;;;;;;4.47;3.33;;;;;;;17.28;62.73;101058.75;5038745;28;20620;-50
2021/06/03 03:08:46;;;;;;;4.20;3.20;;;;;;;17.31;61.27;101060.44;5051667;28;20033;-48
2021/06/03 03:11:12;;;;;;;5.35;3.38;;;;;;;17.24;62.82;101064.13;5046411;28;20112;-47
2021/06/03 03:13:43;;;;;;;4.45;3.33;;;;;;;17.17;63.13;101064.31;5047301;28;20048;-46
2021/06/03 03:16:08;;;;;;;5.45;3.17;;;;;;;17.26;62.62;101065.81;5048707;27;20248;-47
2021/06/03 03:18:35;;;;;;;5.50;3.35;;;;;;;17.42;61.72;101070.69;5048472;28;20313;-47
2021/06/03 03:21:04;;;;;;;5.82;3.25;;;;;;;17.15;63.03;101071.38;5034645;28;20377;-49
2021/06/03 03:23:30;;;;;;;4.18;3.08;;;;;;;17.13;62.94;101073.22;5068918;28;20093;-46
2021/06/03 03:25:58;;;;;;;4.82;3.50;;;;;;;17.13;62.21;101075.84;5058707;28;20380;-48
2021/06/03 03:28:24;;;;;;;4.68;3.60;;;;;;;17.08;63.23;101067.16;5041500;28;20040;-47
2021/06/03 03:30:51;;;;;;;4.00;2.92;;;;;;;17.08;64.46;101072.44;5068764;28;20032;-50
2021/06/03 03:33:25;;;;;;;4.47;3.28;;;;;;;16.98;63.58;101082.38;5053994;28;20369;-49
2021/06/03 03:35:51;;;;;;;;;;;;;;;16.99;63.16;101078.84;5067266;28;20044;-47
2021/06/03 03:38:24;;;;;;;4.78;3.10;;;;;;;16.99;62.94;101072.72;5028150;28;20402;-46
2021/06/03 03:40:52;;;;;;;4.20;3.00;;;;;;;16.99;63.34;101078.00;5044226;28;20072;-46
2021/06/03 03:43:21;;;;;;;5.38;3.30;;;;;;;16.93;64.43;101081.63;5035182;28;20899;-48
2021/06/03 03:45:46;;;;;;;5.55;2.95;;;;;;;17.09;62.65;101090.03;5050594;28;20028;-48
2021/06/03 03:48:15;;;;;;;4.68;3.28;;;;;;;17.02;62.72;101081.41;5070645;28;20262;-47
2021/06/03 03:50:42;;;;;;;4.15;2.95;;;;;;;16.92;63.54;101086.94;5054223;28;20115;-49
2021/06/03 03:53:09;;;;;;;4.00;3.40;;;;;;;16.84;63.68;101082.69;5052948;28;20036;-47
2021/06/03 03:55:35;;;;;;;4.10;3.10;;;;;;;16.79;64.27;101094.25;5051663;28;20050;-48
2021/06/03 03:58:03;;;;;;;4.38;3.08;;;;;;;16.85;63.86;101096.78;5056191;28;20039;-47
2021/06/03 04:00:31;;;;;;;;;;;;;;;16.75;64.76;101095.25;5070298;28;20024;-48
2021/06/03 04:03:05;;;;;;;3.95;3.03;;;;;;;16.83;64.87;101096.78;5069920;28;20221;-49
2021/06/03 04:05:33;;;;;;;9.27;3.05;;;;;;;16.88;64.73;101095.81;5053126;28;20924;-46
2021/06/03 04:08:06;;;;;;;4.18;2.90;;;;;;;16.84;65.39;101095.03;5052979;28;20060;-47
2021/06/03 04:10:33;;;;;;;4.22;3.00;;;;;;;17.04;62.16;101099.84;5061070;28;20078;-51
2021/06/03 04:13:00;;;;;;;6.82;3.10;;;;;;;16.98;64.46;101103.50;5056228;28;20044;-48
2021/06/03 04:15:27;;;;;;;4.47;3.03;;;;;;;16.97;64.62;101107.03;5042003;28;20212;-48
2021/06/03 04:17:55;;;;;;;5.30;3.13;;;;;;;16.94;64.92;101101.00;5070142;28;20047;-47
2021/06/03 04:20:24;;;;;;;5.45;3.53;;;;;;;16.88;64.67;101112.53;5042107;28;20048;-49
2021/06/03 04:22:52;;;;;;;4.90;3.05;;;;;;;16.98;64.66;101107.94;5055445;28;20036;-48
2021/06/03 04:25:21;;;;;;;4.30;3.10;;;;;;;17.00;64.80;101116.69;5074680;28;20482;-47
2021/06/03 04:27:47;;;;;;;4.65;2.88;;;;;;;17.00;65.17;101108.75;5075122;28;20319;-51
2021/06/03 04:30:17;;;;;;;5.22;2.85;;;;;;;16.99;64.61;101123.75;5074270;28;20302;-47
2021/06/03 04:32:43;;;;;;;5.63;3.88;;;;;;;16.94;65.53;101115.06;5073559;28;20035;-47
2021/06/03 04:35:11;;;;;;;4.43;2.60;;;;;;;17.13;64.65;101111.97;5070198;28;20782;-49
2021/06/03 04:37:37;;;;;;;4.60;3.10;;;;;;;17.24;64.18;101119.59;5071033;28;20043;-49
2021/06/03 04:40:04;;;;;;;4.25;2.78;;;;;;;17.23;64.17;101117.91;5074035;28;20043;-47
2021/06/03 04:42:30;;;;;;;4.65;2.70;;;;;;;17.15;65.01;101118.06;5073601;28;20112;-48
2021/06/03 04:44:56;;;;;;;6.30;2.92;;;;;;;17.24;64.50;101119.59;5065762;28;20036;-51
2021/06/03 04:47:22;;;;;;;4.78;2.92;;;;;;;17.24;63.53;101120.50;5076947;28;20042;-46
2021/06/03 04:49:48;;;;;;;4.30;3.00;;;;;;;17.27;61.86;101125.69;5072513;28;20450;-48
2021/06/03 04:52:26;;;;;;;4.60;2.75;;;;;;;17.31;63.93;101135.28;5077834;28;20039;-47
2021/06/03 04:54:55;;;;;;;4.88;3.03;;;;;;;17.41;63.79;101135.06;5063639;28;20127;-47
2021/06/03 04:57:21;;;;;;;4.10;2.90;;;;;;;17.39;63.31;101135.09;5058486;28;20032;-47
2021/06/03 04:59:47;;;;;;;4.57;3.03;;;;;;;17.45;62.41;101139.34;5061657;28;20051;-47
2021/06/03 05:02:14;;;;;;;4.40;2.90;;;;;;;17.48;63.47;101139.28;5042724;28;20480;-48
2021/06/03 05:04:40;;;;;;;4.00;2.55;;;;;;;17.61;62.47;101145.97;5064803;28;20649;-47
2021/06/03 05:07:06;;;;;;;6.55;3.22;;;;;;;17.45;65.55;101145.50;5075181;27;20044;-47
2021/06/03 05:09:31;;;;;;;5.82;3.20;;;;;;;17.48;65.02;101155.97;5061720;28;20055;-48
2021/06/03 05:11:58;;;;;;;4.85;2.83;;;;;;;17.48;64.39;101150.69;5081086;28;20580;-49
2021/06/03 05:14:24;;;;;;;5.10;3.15;;;;;;;17.42;67.04;101147.34;5059398;28;20315;-47
2021/06/03 05:16:50;;;;;;;4.30;3.30;;;;;;;17.47;65.74;101158.66;5076306;28;20036;-50
2021/06/03 05:19:15;;;;;;;4.22;2.83;;;;;;;17.42;66.19;101156.16;5082166;28;20424;-48
2021/06/03 05:21:41;;;;;;;5.28;3.40;;;;;;;17.39;67.65;101155.34;5076821;28;20032;-48
2021/06/03 05:24:07;;;;;;;7.05;3.17;;;;;;;17.46;66.70;101157.81;5045334;28;20047;-52
2021/06/03 05:26:33;;;;;;;5.53;3.33;;;;;;;17.42;68.24;101160.56;5078046;28;20043;-48
2021/06/03 05:28:59;;;;;;;4.60;3.25;;;;;;;17.42;68.71;101160.56;5075005;28;20483;-49
2021/06/03 05:31:25;;;;;;;4.50;3.08;;;;;;;17.48;68.17;101171.84;5074936;28;20102;-48
2021/06/03 05:33:51;;;;;;;5.32;2.90;;;;;;;17.50;67.66;101172.69;5057667;28;20031;-49
2021/06/03 05:36:18;;;;;;;5.00;3.40;;;;;;;17.56;67.06;101166.38;5084513;28;20093;-48
2021/06/03 05:38:44;;;;;;;6.30;3.72;;;;;;;17.85;67.21;101164.75;5049506;28;20040;-48
2021/06/03 05:41:09;;;;;;;4.32;3.10;;;;;;;18.16;64.65;101169.19;5070038;28;20074;-48
2021/06/03 05:43:35;;;;;;;3.88;2.63;;;;;;;18.29;64.81;101169.72;5073057;28;20043;-49
2021/06/03 05:46:01;;;;;;;4.30;3.20;;;;;;;18.37;63.43;101173.88;5072557;28;20518;-47
2021/06/03 05:48:27;;;;;;;4.78;3.40;;;;;;;18.51;63.43;101177.88;5073882;28;20023;-48
2021/06/03 05:50:53;;;;;;;4.68;3.30;;;;;;;18.71;61.55;101183.47;5074158;28;20070;-49
2021/06/03 05:53:19;;;;;;;4.32;3.00;;;;;;;18.77;62.39;101181.53;5074915;28;20050;-48
2021/06/03 05:55:45;;;;;;;4.32;3.15;;;;;;;18.54;61.07;101185.75;5054979;28;20040;-48
2021/06/03 05:58:11;;;;;;;4.68;3.00;;;;;;;18.49;62.62;101191.19;5073383;28;20044;-48
2021/06/03 06:00:37;;;;;;;5.35;3.25;;;;;;;18.53;63.62;101186.66;5065385;28;21078;-49
2021/06/03 06:08:34;;;;;;;;;;;;;;;18.71;63.11;101194.03;5072714;28;20636;-49
2021/06/03 06:11:00;;;;;;;4.53;3.05;;;;;;;18.72;63.49;101195.78;5068735;28;19923;-47
2021/06/03 06:13:26;;;;;;;5.15;3.10;;;;;;;18.64;61.00;101196.94;5071829;28;20070;-47
2021/06/03 06:15:52;;;;;;;4.45;3.08;;;;;;;18.63;63.84;101205.78;5037038;28;20383;-49
2021/06/03 06:18:18;;;;;;;5.13;3.33;;;;;;;18.71;64.60;101201.13;5079021;28;20071;-49
2021/06/03 06:20:44;;;;;;;5.03;2.83;;;;;;;18.63;62.53;101200.50;5073441;28;20048;-49
2021/06/03 06:23:14;;;;;;;6.25;2.90;;;;;;;18.62;62.81;101207.59;5043898;28;20056;-48
2021/06/03 06:25:43;;;;;;;4.43;3.20;;;;;;;18.72;64.42;101211.69;5034053;28;20039;-48
2021/06/03 06:28:16;;;;;;;5.47;3.47;;;;;;;18.61;64.83;101218.19;5053143;28;20048;-48
2021/06/03 06:30:43;;;;;;;4.97;3.00;;;;;;;18.60;63.13;101222.63;5051021;28;20523;-49
2021/06/03 06:33:10;;;;;;;5.27;2.70;;;;;;;18.60;63.47;101227.94;5074364;28;20031;-49
2021/06/03 06:35:38;;;;;;;4.78;3.20;;;;;;;18.74;62.26;101224.00;5031447;28;20876;-47
2021/06/03 06:38:06;;;;;;;4.20;2.90;;;;;;;19.01;62.22;101232.91;5070405;28;20104;-48
2021/06/03 06:40:35;;;;;;;4.10;2.83;;;;;;;18.90;61.46;101230.63;5069181;28;20056;-50
2021/06/03 06:43:00;;;;;;;4.75;3.10;;;;;;;18.84;61.34;101233.41;5064554;28;20050;-50
2021/06/03 06:45:29;;;;;;;3.95;3.10;;;;;;;18.88;62.58;101235.97;5083699;28;20024;-49
2021/06/03 06:47:55;;;;;;;;;;;;;;;18.98;62.04;101244.50;5058471;28;20032;-47
2021/06/03 06:50:22;;;;;;;4.07;2.90;;;;;;;19.49;60.66;101240.22;5060632;27;19928;-47
2021/06/03 06:52:48;;;;;;;5.70;3.10;;;;;;;19.59;62.27;101239.94;5065280;28;20504;-49
2021/06/03 06:55:14;;;;;;;5.03;3.20;;;;;;;19.58;60.18;101239.06;5056341;27;20044;-49
2021/06/03 06:57:40;;;;;;;5.93;3.13;;;;;;;19.70;59.99;101241.31;5061124;27;20032;-48
2021/06/03 07:00:10;;;;;;;4.97;3.10;;;;;;;19.55;61.34;101249.78;5055610;28;20143;-49
2021/06/03 07:02:38;;;;;;;5.38;3.13;;;;;;;19.82;59.99;101252.44;5059929;28;20032;-48
2021/06/03 07:05:08;;;;;;;4.57;2.80;;;;;;;20.06;60.48;101256.91;5071059;28;20094;-48
2021/06/03 07:07:35;;;;;;;4.82;2.90;;;;;;;20.15;60.47;101254.84;5059227;28;20040;-48
2021/06/03 07:10:01;;;;;;;6.25;3.90;;;;;;;20.12;60.84;101249.63;5062693;28;20435;-47
2021/06/03 07:12:26;;;;;;;4.30;3.42;;;;;;;19.87;63.75;101251.38;5053416;28;20043;-49
2021/06/03 07:14:52;;;;;;;4.43;3.42;;;;;;;19.95;62.36;101253.78;5064102;28;20048;-48
2021/06/03 07:17:18;;;;;;;5.75;3.65;;;;;;;19.71;66.09;101258.09;5045916;28;20052;-49
2021/06/03 07:19:43;;;;;;;5.60;3.80;;;;;;;19.48;64.70;101257.06;5062418;28;20836;-50
2021/06/03 07:22:10;;;;;;;5.93;4.18;;;;;;;19.50;69.17;101252.56;5086567;28;20120;-50
2021/06/03 07:24:36;;;;;;;5.93;3.92;;;;;;;19.20;71.26;101249.13;5077632;28;20051;-48
2021/06/03 07:27:03;;;;;;;5.28;3.90;;;;;;;19.24;70.76;101250.75;5046006;28;20026;-51
2021/06/03 07:29:29;;;;;;;6.47;4.22;;;;;;;19.17;70.57;101259.81;5061005;28;20065;-49
2021/06/03 07:31:55;;;;;;;6.80;3.60;;;;;;;19.09;67.84;101261.84;5050746;28;20100;-52
2021/06/03 07:34:21;;;;;;;5.75;4.30;;;;;;;18.98;72.70;101255.09;5083513;28;20047;-49
2021/06/03 07:36:47;;;;;;;5.32;3.88;;;;;;;19.03;69.32;101257.59;5077842;28;20544;-50
2021/06/03 07:39:13;;;;;;;8.10;4.55;;;;;;;19.08;73.25;101254.78;5081377;28;20086;-49
2021/06/03 07:41:39;;;;;;;6.45;4.18;;;;;;;19.09;72.10;101248.59;5083102;28;20032;-50
2021/06/03 07:44:05;;;;;;;5.90;4.03;;;;;;;19.08;71.45;101254.78;5060258;28;20040;-48
2021/06/03 07:46:31;;;;;;;6.25;4.40;;;;;;;18.79;76.58;101254.75;5083499;28;20039;-49
2021/06/03 07:48:57;;;;;;;7.25;4.88;;;;;;;18.68;78.02;101254.19;5082704;28;20148;-52
2021/06/03 07:51:23;;;;;;;9.07;5.38;;;;;;;18.57;77.75;101257.16;5085179;28;20589;-48
2021/06/03 07:53:49;;;;;;;6.80;5.20;;;;;;;18.61;78.90;101264.09;5086017;28;20050;-51
2021/06/03 07:56:15;;;;;;;6.82;4.38;;;;;;;18.61;76.79;101266.75;5062718;28;20044;-50
2021/06/03 07:58:41;;;;;;;6.00;4.38;;;;;;;18.70;75.89;101268.25;5086936;28;20078;-51
2021/06/03 08:01:07;;;;;;;7.18;4.88;;;;;;;18.69;78.31;101277.97;5060553;28;20411;-51
2021/06/03 08:03:32;;;;;;;6.80;4.82;;;;;;;18.74;78.82;101269.91;5048274;28;20032;-50
2021/06/03 08:05:58;;;;;;;7.13;4.75;;;;;;;18.81;77.96;101268.78;5086946;28;20499;-52
2021/06/03 08:08:24;;;;;;;5.43;4.30;;;;;;;18.86;72.37;101271.34;5080816;28;20040;-50
2021/06/03 08:10:50;;;;;;;6.20;4.90;;;;;;;19.03;73.94;101273.50;5083052;28;20036;-50
2021/06/03 08:13:17;;;;;;;5.93;4.25;;;;;;;19.05;71.34;101277.84;5083207;28;20131;-49
2021/06/03 08:15:44;;;;;;;6.40;5.07;;;;;;;19.11;78.19;101275.94;5078415;28;20268;-50
2021/06/03 08:18:10;;;;;;;6.28;5.10;;;;;;;19.18;76.07;101272.16;5083314;28;20649;-50
2021/06/03 08:20:40;;;;;;;5.97;5.03;;;;;;;19.38;78.88;101264.44;5063581;28;20035;-50
2021/06/03 08:23:08;;;;;;;8.25;4.88;;;;;;;19.74;76.95;101263.28;5079099;28;20064;-52
2021/06/03 08:25:33;;;;;;;6.28;4.68;;;;;;;19.83;76.16;101270.97;5079587;28;20036;-52
2021/06/03 08:27:59;;;;;;;7.80;4.90;;;;;;;20.10;72.60;101268.28;5054031;28;20090;-52
2021/06/03 08:30:26;;;;;;;5.20;4.20;;;;;;;19.94;71.22;101272.38;5062694;28;20029;-51
2021/06/03 08:32:53;;;;;;;6.32;4.50;;;;;;;19.82;71.98;101269.22;5080354;28;20039;-54
2021/06/03 08:35:23;;;;;;;5.93;4.70;;;;;;;19.97;73.78;101281.09;5082575;28;20047;-52
2021/06/03 08:37:56;;;;;;;7.47;4.90;;;;;;;20.33;70.13;101275.44;5080411;28;20309;-51
2021/06/03 08:40:26;;;;;;;6.53;4.45;;;;;;;20.32;67.78;101278.13;5060591;28;20129;-52
2021/06/03 08:42:54;;;;;;;6.47;4.68;;;;;;;20.16;69.39;101277.81;5062781;28;21677;-50
2021/06/03 08:45:23;;;;;;;5.82;4.47;;;;;;;20.26;68.22;101273.91;5066258;28;20130;-51
2021/06/03 08:47:51;;;;;;;6.15;4.05;;;;;;;20.25;67.42;101274.84;5077730;28;20040;-49
2021/06/03 08:50:17;;;;;;;5.47;4.20;;;;;;;20.15;69.07;101282.25;5079667;28;20109;-53
2021/06/03 08:52:43;;;;;;;6.18;4.32;;;;;;;20.54;68.01;101288.84;5072102;27;20083;-51
2021/06/03 08:56:13;;;;;;;6.32;4.20;;;;;;;20.35;69.84;101288.66;5060842;28;20864;-51
2021/06/03 08:57:57;;;;;;;6.03;4.30;;;;;;;20.38;69.58;101299.16;5065273;28;20055;-55
2021/06/03 09:00:23;;;;;;;6.38;4.15;;;;;;;20.52;66.10;101298.66;5081741;28;20033;-52
2021/06/03 09:02:48;;;;;;;5.97;3.75;;;;;;;20.33;68.01;101304.63;5064720;28;20044;-51
2021/06/03 09:05:14;;;;;;;6.85;4.15;;;;;;;20.27;68.70;101306.63;5080234;28;20047;-50
2021/06/03 09:07:43;;;;;;;7.18;3.88;;;;;;;20.39;68.09;101308.84;5077926;28;20502;-53
2021/06/03 09:10:32;;;;;;;5.38;4.05;;;;;;;20.59;65.78;101302.84;5081771;28;20550;-51
2021/06/03 09:13:06;;;;;;;4.70;3.47;;;;;;;20.28;65.56;101297.75;5082067;28;20051;-50
2021/06/03 09:15:33;;;;;;;6.25;4.13;;;;;;;20.19;66.58;101307.78;5057304;28;20479;-49
2021/06/03 09:17:59;;;;;;;6.55;4.15;;;;;;;20.48;66.84;101303.22;5078847;28;22489;-51
2021/06/03 09:20:25;;;;;;;5.35;4.05;;;;;;;20.46;66.96;101296.22;5062619;28;20100;-54
2021/06/03 09:22:54;;;;;;;4.90;3.88;;;;;;;20.33;66.87;101307.28;5075526;28;20156;-54
2021/06/03 09:25:43;;;;;;;5.57;4.20;;;;;;;20.50;66.75;101308.47;5053720;28;20048;-51
2021/06/03 09:28:24;;;;;;;5.65;4.20;;;;;;;20.71;66.51;101307.75;5057738;28;20624;-52
2021/06/03 09:31:01;;;;;;;6.40;4.68;;;;;;;20.69;65.80;101304.25;5076467;28;20036;-50
2021/06/03 09:33:50;;;;;;;6.32;4.25;;;;;;;20.70;65.09;101313.97;5068674;28;20120;-49
2021/06/03 09:36:46;;;;;;;6.88;4.78;;;;;;;20.93;65.99;101317.53;5081490;28;20815;-50
2021/06/03 09:39:28;;;;;;;5.72;4.25;;;;;;;20.75;67.71;101317.31;5065892;28;20363;-53
2021/06/03 09:42:02;;;;;;;5.88;4.72;;;;;;;20.85;66.43;101315.19;5060018;28;20042;-49
2021/06/03 09:44:49;;;;;;;7.28;5.10;;;;;;;20.68;66.60;101317.59;5077306;28;20101;-51
2021/06/03 09:47:17;;;;;;;6.03;4.85;;;;;;;20.68;70.76;101326.41;5082980;28;20047;-51
2021/06/03 09:49:56;;;;;;;7.03;5.78;;;;;;;20.50;71.31;101327.06;5087874;28;20052;-48
2021/06/03 09:52:28;;;;;;;10.48;5.80;;;;;;;20.32;71.93;101323.28;5083084;28;20412;-49
2021/06/03 09:54:57;;;;;;;7.55;5.85;;;;;;;20.26;74.41;101332.31;5065615;28;20039;-50
2021/06/03 09:57:52;;;;;;;7.93;5.97;;;;;;;20.15;71.40;101326.53;5080304;28;20040;-49
2021/06/03 10:00:22;;;;;;;9.50;6.20;;;;;;;20.27;75.22;101334.06;5025350;28;20400;-50
2021/06/03 10:02:55;;;;;;;7.45;6.38;;;;;;;19.98;73.38;101335.03;5083932;28;20162;-51
2021/06/03 10:05:22;;;;;;;9.00;7.40;;;;;;;20.18;77.35;101331.72;5064210;28;20057;-49
2021/06/03 10:07:57;;;;;;;7.97;6.70;;;;;;;20.33;75.27;101328.53;5060966;28;20489;-49
2021/06/03 10:10:24;;;;;;;8.95;6.80;;;;;;;20.08;74.13;101323.22;5083502;28;20100;-48
2021/06/03 10:12:51;;;;;;;8.43;7.22;;;;;;;20.15;76.28;101326.53;5081855;28;20111;-51
2021/06/03 10:15:19;;;;;;;9.48;6.88;;;;;;;20.04;76.68;101326.88;5082650;28;20032;-50
2021/06/03 10:17:58;;;;;;;9.20;6.70;;;;;;;20.10;78.03;101323.16;5065499;28;20132;-50
2021/06/03 10:20:37;;;;;;;8.43;7.03;;;;;;;20.24;76.87;101328.84;5060000;28;20036;-51
2021/06/03 10:23:06;;;;;;;8.88;6.57;;;;;;;20.14;75.64;101322.97;5076121;28;20416;-50
2021/06/03 10:25:32;;;;;;;;;;;;;;;20.00;74.19;101326.09;5059434;28;20032;-50
2021/06/03 10:28:06;;;;;;;10.20;7.22;;;;;;;20.03;76.68;101331.31;5062261;28;20427;-49
2021/06/03 10:30:39;;;;;;;9.27;7.28;;;;;;;20.25;77.65;101335.88;5069787;28;20103;-50
2021/06/03 10:33:14;;;;;;;11.07;7.60;;;;;;;19.93;77.24;101335.19;5063842;28;20714;-50
2021/06/03 10:35:43;;;;;;;9.73;7.45;;;;;;;19.84;79.69;101341.69;5080761;28;20354;-50
2021/06/03 10:38:10;;;;;;;8.75;7.25;;;;;;;20.02;74.98;101340.22;5068259;28;20047;-52
2021/06/03 10:40:40;;;;;;;9.80;7.68;;;;;;;19.98;75.15;101345.66;5064066;28;20035;-50
2021/06/03 10:43:06;;;;;;;10.73;7.55;;;;;;;20.26;77.25;101342.94;5065253;28;20039;-49
2021/06/03 10:45:34;;;;;;;7.78;6.68;;;;;;;20.08;74.16;101331.16;5086249;28;20059;-49
2021/06/03 10:48:00;;;;;;;8.93;7.18;;;;;;;20.31;76.97;101341.00;5076938;28;20123;-50
2021/06/03 10:50:37;;;;;;;8.75;7.05;;;;;;;20.26;77.08;101334.97;5085135;28;20061;-50
2021/06/03 10:53:07;;;;;;;9.20;8.15;;;;;;;20.34;78.85;101335.59;5064209;28;20039;-51
2021/06/03 10:55:37;;;;;;;10.52;7.18;;;;;;;20.22;74.13;101333.34;5073129;28;20044;-50
2021/06/03 10:58:05;;;;;;;9.02;7.30;;;;;;;20.24;75.52;101334.16;5064126;28;20040;-50
2021/06/03 11:00:33;;;;;;;9.20;8.18;;;;;;;20.51;77.61;101331.47;5058431;28;20044;-49
2021/06/03 11:03:16;;;;;;;10.10;6.93;;;;;;;20.35;75.55;101332.00;5082381;28;20079;-51
2021/06/03 11:05:48;;;;;;;9.55;7.20;;;;;;;20.26;74.71;101337.63;5067927;28;20401;-49
2021/06/03 11:08:32;;;;;;;8.40;7.03;;;;;;;20.20;76.68;101327.22;5058096;28;20091;-50
2021/06/03 11:11:10;;;;;;;10.13;7.05;;;;;;;20.54;75.50;101332.19;5035819;28;20049;-49
2021/06/03 11:13:48;;;;;;;11.38;7.63;;;;;;;20.58;74.99;101332.97;5045285;28;20040;-49
2021/06/03 11:16:16;;;;;;;10.57;6.88;;;;;;;20.46;74.98;101326.28;5023869;28;20471;-50
2021/06/03 11:18:44;;;;;;;9.68;7.03;;;;;;;20.41;73.78;101320.31;5067252;28;20033;-49
2021/06/03 11:21:35;;;;;;;10.02;6.78;;;;;;;20.40;76.60;101327.38;5087049;28;20044;-49
2021/06/03 11:24:04;;;;;;;9.65;7.32;;;;;;;20.61;75.80;101340.81;5064330;28;21345;-49
2021/06/03 11:26:39;;;;;;;10.80;7.32;;;;;;;20.52;76.80;101336.72;5070612;28;20563;-52
2021/06/03 11:29:11;;;;;;;7.65;6.55;;;;;;;20.42;73.37;101333.53;5081382;28;20473;-49
2021/06/03 11:32:00;;;;;;;9.18;7.35;;;;;;;20.46;74.71;101323.63;5072378;28;20044;-49
2021/06/03 11:34:40;;;;;;;9.88;7.43;;;;;;;20.45;72.79;101323.69;5052051;27;20102;-52
2021/06/03 11:37:22;;;;;;;10.52;8.30;;;;;;;20.81;77.98;101324.19;5062157;27;20159;-51
2021/06/03 11:40:07;;;;;;;8.55;7.50;;;;;;;20.77;78.09;101324.34;5062223;28;20099;-51
2021/06/03 11:42:38;;;;;;;10.32;8.05;;;;;;;20.87;76.48;101323.97;5084235;28;20119;-53